• Join FlightAware (Why Join?)
  • Login
  • US Flag 
02:44AM EDT


 

Airport Tracker/Info


-or-


 

Live Flight TrackerFlight Track Log ✈ N143DE ✈ 23-Jan-2014 ✈ KOPF - KRYY

Flight Track Log - Related Links

Times and Time Zones

All times are in EST time to prevent confusion due to time zone crossing. See the N143DE flight status page for this flight to view local times or setup timezone preferences in your user account.

Time Position Orientation Groundspeed Altitude Reporting Facility
EST Latitude Longitude Course Direction KTS MPH feet Rate Location/Type
03:06PM 25.9089 -80.2731 76° East 116 133 300  Level Miami Center
03:07PM 25.9136 -80.2525 76° East 140 161 1,300 2,160 Climbing Miami Center
03:08PM 25.9147 -80.1992 89° East 148 170 3,900 2,100 Climbing Miami Center
03:09PM 25.9444 -80.1747 36° Northeast 163 188 5,800 2,040 Climbing Miami Center
03:10PM 25.9794 -80.2081 319° Northwest 109 125 8,100 2,100 Climbing Miami Center
03:11PM 26.0142 -80.2367 323° Northwest 124 143 10,000 1,860 Climbing Miami Center
03:12PM 26.0594 -80.2658 330° Northwest 160 184 11,900 1,740 Climbing Miami Center
03:13PM 26.0961 -80.3014 319° Northwest 177 204 13,500 1,560 Climbing Miami Center
03:14PM 26.1328 -80.3419 315° West 182 209 15,100 1,500 Climbing Miami Center
03:15PM 26.1675 -80.3822 314° West 182 209 16,500 1,320 Climbing Miami Center
03:16PM 26.2083 -80.4111 328° Northwest 177 204 17,800 960 Climbing Miami Center
03:17PM 26.2558 -80.4406 331° Northwest 177 204 18,500 900 Climbing Miami Center
03:18PM 26.3075 -80.4628 339° North 187 215 19,600 1,020 Climbing Miami Center
03:19PM 26.3547 -80.4897 333° Northwest 187 215 20,600 840 Climbing Miami Center
03:20PM 26.3981 -80.5189 329° Northwest 187 215 21,300 780 Climbing Miami Center
03:21PM 26.4517 -80.5392 341° North 192 221 22,200 840 Climbing Miami Center
03:22PM 26.5056 -80.5547 346° North 197 227 23,000 720 Climbing Miami Center
03:23PM 26.5572 -80.5797 337° Northwest 197 227 23,700 720 Climbing Miami Center
03:24PM 26.6025 -80.6067 332° Northwest 186 214 24,500 720 Climbing Miami Center
03:25PM 26.6544 -80.6197 347° North 186 214 25,200 720 Climbing Miami Center
03:26PM 26.7081 -80.6378 343° North 191 220 26,000 660 Climbing Miami Center
03:27PM 26.7514 -80.6625 333° Northwest 184 212 26,600 360 Climbing Miami Center
03:28PM 26.8031 -80.6875 337° Northwest 184 212 26,800 120 Climbing Miami Center
03:29PM 26.8586 -80.7103 340° North 195 224 26,900 60 Climbing Miami Center
03:30PM 26.9208 -80.7286 345° North 215 247 27,000  Climbing Miami Center
03:31PM 26.9850 -80.7469 346° North 226 260 27,000  Level Miami Center
03:32PM 27.0494 -80.7656 346° North 231 266 27,000  Level Miami Center
03:33PM 27.1092 -80.7908 339° North 236 272 27,100  Climbing Miami Center
03:34PM 27.1667 -80.8231 334° Northwest 231 266 27,100  Level Miami Center
03:35PM 27.2267 -80.8486 339° North 231 266 27,100  Level Miami Center
03:36PM 27.2931 -80.8647 348° North 231 266 27,100  Level Miami Center
03:37PM 27.3617 -80.8742 353° North 242 278 27,100 -120 Level Miami Center
03:38PM 27.4278 -80.8953 344° North 242 278 26,900  Descending Miami Center
03:39PM 27.4875 -80.9256 336° Northwest 231 266 27,100  Climbing Miami Center
03:40PM 27.5494 -80.9533 338° Northwest 231 266 26,900 -120 Descending Miami Center
03:41PM 27.6092 -80.9767 341° North 231 266 26,900  Level Miami Center
03:42PM 27.6669 -81.0044 337° Northwest 231 266 26,900  Level Miami Center
03:43PM 27.7331 -81.0256 344° North 231 266 27,000  Climbing Miami Center
03:44PM 27.8036 -81.0353 353° North 241 277 26,900  Descending Miami Center
03:45PM 27.8658 -81.0517 347° North 241 277 27,000  Climbing Miami Center
03:46PM 27.9236 -81.0797 337° Northwest 228 262 27,000  Level Miami Center
03:47PM 27.9728 -81.1097 332° Northwest 223 257 27,000  Level Miami Center
03:48PM 28.0322 -81.1425 334° Northwest 218 251 27,000  Level Miami Center
03:49PM 28.0961 -81.1661 342° North 228 262 27,000  Level Miami Center
03:50PM 28.1561 -81.1872 343° North 233 268 27,000  Level Miami Center
03:51PM 28.2117 -81.2106 340° North 228 262 27,000  Level Miami Center
03:52PM 28.2758 -81.2342 342° North 228 262 27,000  Level Miami Center
03:53PM 28.3439 -81.2603 341° North 228 262 27,000  Level Miami Center
03:54PM 28.4236 -81.2875 343° North 229 264 27,000  Level Jacksonville Center
03:55PM 28.4867 -81.3125 341° North 229 264 27,000  Level Jacksonville Center
03:56PM 28.5475 -81.3375 340° North 229 264 27,000  Level Jacksonville Center
03:57PM 28.6103 -81.3556 346° North 229 264 27,000  Level Jacksonville Center
03:58PM 28.6711 -81.3758 344° North 229 264 27,000  Level Jacksonville Center
03:59PM 28.7339 -81.3961 344° North 229 264 27,000  Level Jacksonville Center
04:00PM 28.7967 -81.4167 344° North 229 264 27,000  Level Jacksonville Center
04:01PM 28.8597 -81.4394 342° North 229 264 27,000  Level Jacksonville Center
04:02PM 28.9203 -81.4575 345° North 229 264 27,000  Level Jacksonville Center
04:03PM 28.9833 -81.4803 342° North 229 264 27,000  Level Jacksonville Center
04:04PM 29.0439 -81.5008 343° North 229 264 27,000  Level Jacksonville Center
04:05PM 29.1069 -81.5236 342° North 229 264 27,000  Level Jacksonville Center
04:06PM 29.1717 -81.5417 346° North 229 264 27,000  Level Jacksonville Center
04:07PM 29.2325 -81.5647 342° North 229 264 27,000  Level Jacksonville Center
04:08PM 29.2933 -81.5853 344° North 229 264 27,000  Level Jacksonville Center
04:09PM 29.3539 -81.6061 343° North 229 264 27,000  Level Jacksonville Center
04:10PM 29.4169 -81.6267 344° North 229 264 27,100  Climbing Jacksonville Center
04:11PM 29.4775 -81.6450 345° North 224 258 27,000 -60 Descending Jacksonville Center
04:12PM 29.5361 -81.6656 343° North 224 258 27,000  Level Jacksonville Center
04:13PM 29.6011 -81.6864 344° North 224 258 27,100  Climbing Jacksonville Center
04:14PM 29.6597 -81.7072 343° North 224 258 27,000  Descending Jacksonville Center
04:15PM 29.7206 -81.7278 344° North 224 258 27,100  Climbing Jacksonville Center
04:16PM 29.7811 -81.7464 345° North 224 258 27,100  Level Jacksonville Center
04:17PM 29.8419 -81.7672 343° North 224 258 27,100  Level Jacksonville Center
04:18PM 29.9047 -81.7881 344° North 224 258 27,100  Level Jacksonville Center
04:19PM 29.9633 -81.8064 345° North 224 258 27,100  Level Jacksonville Center
04:20PM 30.0242 -81.8250 345° North 224 258 27,100  Level Jacksonville Center
04:21PM 30.0847 -81.8458 343° North 224 258 27,100  Level Jacksonville Center
04:22PM 30.1433 -81.8669 343° North 224 258 27,100  Level Jacksonville Center
04:23PM 30.2042 -81.8856 345° North 224 258 27,100  Level Jacksonville Center
04:24PM 30.2647 -81.9067 343° North 224 258 27,100  Level Jacksonville Center
04:25PM 30.3233 -81.9156 353° North 229 264 27,100  Level Jacksonville Center
04:26PM 30.3819 -81.9367 343° North 229 264 27,100  Level Jacksonville Center
04:27PM 30.4386 -81.9625 339° North 219 252 27,100 -240 Level Jacksonville Center
04:28PM 30.4889 -81.9933 332° Northwest 213 245 26,700 -600 Descending Jacksonville Center
04:29PM 30.5494 -82.0217 338° Northwest 218 251 25,900 -840 Descending Jacksonville Center
04:30PM 30.6186 -82.0525 339° North 242 278 25,100 -480 Descending Jacksonville Center
04:31PM 30.6856 -82.0786 341° North 255 293 25,000 -300 Descending Jacksonville Center
04:32PM 30.7506 -82.1044 341° North 249 287 24,500 -540 Descending Jacksonville Center
04:33PM 30.8197 -82.1306 342° North 249 287 24,000 -300 Descending Jacksonville Center
04:34PM 30.8803 -82.1542 341° North 243 280 24,000 -360 Level Jacksonville Center
04:35PM 30.9453 -82.1806 341° North 243 280 23,300 -660 Descending Jacksonville Center
04:36PM 31.0081 -82.2067 340° North 238 274 22,700 -660 Descending Jacksonville Center
04:37PM 31.0708 -82.2353 339° North 238 274 22,000 -360 Descending Jacksonville Center
04:38PM 31.1356 -82.2567 344° North 238 274 22,000  Level Jacksonville Center
04:39PM 31.1942 -82.2856 337° Northwest 238 274 22,000  Level Jacksonville Center
04:40PM 31.2547 -82.3069 343° North 233 268 22,000  Level Jacksonville Center
04:41PM 31.3133 -82.3236 346° North 228 262 22,000  Level Jacksonville Center
04:42PM 31.3742 -82.3500 340° North 228 262 22,000  Level Jacksonville Center
04:43PM 31.4325 -82.3717 342° North 228 262 22,000  Level Jacksonville Center
04:44PM 31.4911 -82.3956 341° North 228 262 22,000  Level Jacksonville Center
04:45PM 31.5497 -82.4219 339° North 228 262 22,000  Level Jacksonville Center
04:46PM 31.6103 -82.4461 341° North 233 268 22,000  Level Jacksonville Center
04:47PM 31.6689 -82.4678 343° North 228 262 22,000  Level Jacksonville Center
04:48PM 31.7275 -82.4919 341° North 228 262 22,000  Level Jacksonville Center
04:49PM 31.7903 -82.5161 342° North 228 262 22,000  Level Jacksonville Center
04:50PM 31.8508 -82.5403 341° North 228 262 22,000  Level Jacksonville Center
04:51PM 31.9092 -82.5647 340° North 228 262 22,000  Level Jacksonville Center
04:52PM 31.9700 -82.5889 341° North 233 268 22,000  Level Jacksonville Center
04:55PM 32.1522 -82.6650 341° North 221 254 22,000  Level Atlanta Center
04:56PM 32.2150 -82.6911 341° North 221 254 22,000  Level Atlanta Center
04:57PM 32.2758 -82.7147 342° North 226 260 22,000  Level Atlanta Center
04:58PM 32.3389 -82.7408 341° North 231 266 22,000  Level Atlanta Center
04:59PM 32.4017 -82.7669 341° North 236 272 22,000  Level Atlanta Center
05:00PM 32.4644 -82.7931 341° North 236 272 22,000 -360 Level Atlanta Center
05:01PM 32.5275 -82.8144 344° North 231 266 21,300 -900 Descending Atlanta Center
05:02PM 32.5903 -82.8456 337° Northwest 231 266 20,300 -960 Descending Atlanta Center
05:03PM 32.6347 -82.8969 316° Northwest 225 259 19,400 -900 Descending Atlanta Center
05:04PM 32.6789 -82.9506 314° West 225 259 18,500 -780 Descending Atlanta Center
05:05PM 32.7253 -82.9969 320° Northwest 225 259 17,900 -900 Descending Atlanta Center
05:06PM 32.7736 -83.0458 320° Northwest 225 259 16,800 -1,140 Descending Atlanta Center
05:07PM 32.8200 -83.0897 322° Northwest 220 253 15,700 -1,080 Descending Atlanta Center
05:08PM 32.8683 -83.1386 320° Northwest 220 253 14,700 -1,020 Descending Atlanta Center
05:09PM 32.9147 -83.1853 320° Northwest 215 247 13,700 -1,020 Descending Atlanta Center
05:10PM 32.9631 -83.2317 321° Northwest 215 247 12,700 -1,020 Descending Atlanta Center
05:11PM 33.0114 -83.2858 317° Northwest 225 259 11,700 -900 Descending Atlanta Center
05:12PM 33.0575 -83.3350 318° Northwest 220 253 11,000 -420 Descending Atlanta Center
05:13PM 33.1078 -83.3817 322° Northwest 215 247 10,900 -60 Descending Atlanta Center
05:14PM 33.1478 -83.4236 319° Northwest 205 236 10,900  Level Atlanta Center
05:15PM 33.1897 -83.4681 318° Northwest 205 236 11,000  Climbing Atlanta Center
05:16PM 33.2317 -83.5097 320° Northwest 200 230 11,000 -420 Level Atlanta Center
05:17PM 33.2778 -83.5517 323° Northwest 200 230 10,200 -780 Descending Atlanta Center
05:19PM 33.3667 -83.6500 317° Northwest 208 239 8,600 -720 Descending Atlanta TRACON
05:20PM 33.4167 -83.7000 320° Northwest 209 241 8,000 -600 Descending Atlanta TRACON
05:21PM 33.4667 -83.7333 331° Northwest 196 226 7,500 -840 Descending Atlanta TRACON
05:22PM 33.5167 -83.7667 331° Northwest 214 246 6,400 -780 Descending Atlanta TRACON
05:23PM 33.5667 -83.8000 331° Northwest 215 247 6,000 -240 Descending Atlanta TRACON
05:24PM 33.6333 -83.8167 348° North 208 239 6,000  Level Atlanta TRACON
05:25PM 33.6833 -83.8333 344° North 208 239 6,000 -60 Level Atlanta TRACON
05:26PM 33.7333 -83.8333 360° North 210 242 5,900 -60 Descending Atlanta TRACON
05:27PM 33.8000 -83.8333 360° North 210 242 5,900  Level Atlanta TRACON
05:28PM 33.8500 -83.8500 345° North 200 230 6,000  Climbing Atlanta TRACON
05:29PM 33.8833 -83.9000 309° West 200 230 6,000 -420 Level Atlanta TRACON
05:30PM 33.9167 -83.9667 301° West 215 247 5,200 -960 Descending Atlanta TRACON
05:31PM 33.9333 -84.0167 292° West 204 235 4,200 -660 Descending Atlanta TRACON
05:32PM 33.9667 -84.0833 301° West 185 213 3,900 -120 Descending Atlanta TRACON
05:33PM 34.0000 -84.1167 320° Northwest 174 200 4,000  Climbing Atlanta TRACON
05:34PM 34.0167 -84.1667 292° West 166 191 4,000 -120 Level Atlanta TRACON
05:35PM 34.0167 -84.2333 270° West 164 189 3,800 -300 Descending Atlanta TRACON
05:36PM 34.0167 -84.2833 270° West 176 203 3,400 -240 Descending Atlanta TRACON
05:37PM 34.0167 -84.3500 270° West 167 192 3,300  Descending Atlanta TRACON
05:38PM 34.0167 -84.4000 270° West 185 213 3,500  Climbing Atlanta TRACON
05:39PM 34.0167 -84.4667 270° West 157 181 3,400 -480 Descending Atlanta TRACON
05:40PM 34.0167 -84.5000 270° West 119 137 2,600 -720 Descending Atlanta TRACON
05:41PM 34.0167 -84.5333 270° West 113 130 2,000 -600 Descending Atlanta TRACON
05:43PM 34.0000 -84.5833 270° West  Level FlightAware Approximate
05:50PM 34.0132 -84.5971 270° West  Level Estimated